Time;durP1;ratioP1;P1;durP2;ratioP2;P2;SDS_P1;SDS_P2;PMS_P1;PMS_P2;Temp;Humidity;BMP_temperature;BMP_pressure;BME280_temperature;BME280_humidity;BME280_pressure;Samples;Min_cycle;Max_cycle;Signal;HPM_P1;HPM_P2
2021/06/16 00:04:41;;;;;;;6.20;1.70;;;16.60;99.90;;;;;;12442058;28;20297;-41
2021/06/16 00:10:43;;;;;;;9.38;1.88;;;16.70;99.90;;;;;;12452169;28;20578;-39
2021/06/16 00:16:45;;;;;;;5.82;1.65;;;16.70;99.90;;;;;;12444637;28;20128;-39
2021/06/16 00:22:47;;;;;;;11.27;1.90;;;16.60;99.90;;;;;;12446677;28;20916;-39
2021/06/16 00:28:49;;;;;;;6.38;1.60;;;16.70;99.90;;;;;;12440838;28;20053;-41
2021/06/16 00:34:51;;;;;;;4.30;1.67;;;16.60;99.90;;;;;;12441487;28;20089;-40
2021/06/16 00:40:53;;;;;;;5.15;1.70;;;16.50;99.90;;;;;;12446774;28;20490;-39
2021/06/16 00:46:55;;;;;;;8.55;1.90;;;16.60;99.90;;;;;;12447195;28;20171;-40
2021/06/16 00:52:57;;;;;;;7.63;1.63;;;16.50;99.90;;;;;;12435857;28;20591;-40
2021/06/16 00:58:59;;;;;;;7.60;2.03;;;16.30;99.90;;;;;;12446051;28;20116;-40
2021/06/16 01:05:03;;;;;;;7.90;2.08;;;16.30;99.90;;;;;;12439792;28;20128;-39
2021/06/16 01:11:09;;;;;;;5.95;1.73;;;16.20;99.90;;;;;;12441067;28;20198;-39
2021/06/16 01:17:17;;;;;;;5.85;2.05;;;16.20;99.90;;;;;;12447561;28;20569;-39
2021/06/16 01:24:03;;;;;;;7.38;2.10;;;16.10;99.90;;;;;;12437411;28;20127;-39
2021/06/16 01:30:06;;;;;;;7.65;2.50;;;16.00;99.90;;;;;;12389523;28;20475;-39
2021/06/16 01:36:10;;;;;;;7.40;2.15;;;15.80;99.90;;;;;;12442357;28;20046;-40
2021/06/16 01:42:19;;;;;;;9.83;2.53;;;15.80;99.90;;;;;;12447836;28;20598;-39
2021/06/16 01:48:22;;;;;;;7.07;2.17;;;15.90;99.90;;;;;;12449968;28;20144;-39
2021/06/16 01:54:26;;;;;;;4.65;1.40;;;15.80;99.90;;;;;;12442735;28;20061;-40
2021/06/16 02:00:28;;;;;;;10.37;1.87;;;15.80;99.90;;;;;;12443680;28;20082;-39
2021/06/16 02:06:35;;;;;;;5.57;1.80;;;15.80;99.90;;;;;;12444566;28;20544;-40
2021/06/16 02:12:40;;;;;;;8.00;1.75;;;15.80;99.90;;;;;;12435644;28;20084;-39
2021/06/16 02:18:48;;;;;;;8.20;2.15;;;15.80;99.90;;;;;;12438645;28;20062;-39
2021/06/16 02:24:50;;;;;;;12.85;1.88;;;15.80;99.90;;;;;;12434221;28;20060;-40
2021/06/16 02:30:52;;;;;;;8.98;2.08;;;15.80;99.90;;;;;;12437485;28;20054;-40
2021/06/16 02:36:58;;;;;;;8.95;2.03;;;15.80;99.90;;;;;;12439089;28;20584;-39
2021/06/16 02:43:00;;;;;;;6.10;1.88;;;15.70;99.90;;;;;;12435515;28;20099;-39
2021/06/16 02:49:08;;;;;;;7.03;2.10;;;15.60;99.90;;;;;;12436701;28;20045;-39
2021/06/16 02:55:12;;;;;;;4.88;1.90;;;15.60;99.90;;;;;;12436417;28;20061;-39
2021/06/16 03:01:19;;;;;;;9.37;2.03;;;15.60;99.90;;;;;;12436223;28;20053;-40
2021/06/16 03:07:22;;;;;;;7.80;2.30;;;15.50;99.90;;;;;;12441946;28;20080;-39
2021/06/16 03:13:26;;;;;;;5.47;1.90;;;15.40;99.90;;;;;;12438383;28;20049;-39
2021/06/16 03:19:28;;;;;;;10.98;2.08;;;15.10;99.90;;;;;;12436514;28;20114;-40
2021/06/16 03:25:32;;;;;;;9.50;2.20;;;15.10;99.90;;;;;;12432102;28;20049;-41
2021/06/16 03:31:34;;;;;;;7.22;2.00;;;15.10;99.90;;;;;;12438475;28;20140;-39
2021/06/16 03:37:37;;;;;;;14.25;2.13;;;15.10;99.90;;;;;;12442759;28;20103;-40
2021/06/16 03:43:41;;;;;;;16.77;2.30;;;15.20;99.90;;;;;;12435574;28;21077;-39
2021/06/16 03:49:45;;;;;;;10.60;1.90;;;15.10;99.90;;;;;;12438639;28;20054;-39
2021/06/16 03:55:49;;;;;;;8.77;1.90;;;15.10;99.90;;;;;;12427879;28;20081;-39
2021/06/16 04:01:51;;;;;;;;;;;15.10;99.90;;;;;;12435906;28;20052;-40
2021/06/16 04:07:54;;;;;;;12.48;2.35;;;14.90;99.90;;;;;;12437076;28;19975;-41
2021/06/16 04:13:56;;;;;;;4.57;1.63;;;15.00;99.90;;;;;;12435877;28;20099;-39
2021/06/16 04:19:58;;;;;;;12.45;2.47;;;15.10;99.90;;;;;;12437622;28;20457;-40
2021/06/16 04:26:00;;;;;;;7.50;2.35;;;15.10;99.90;;;;;;12432910;28;20087;-40
2021/06/16 04:32:02;;;;;;;11.23;2.35;;;15.20;99.90;;;;;;12433234;28;20038;-41
2021/06/16 04:38:05;;;;;;;7.05;2.42;;;15.30;99.90;;;;;;12436941;28;20093;-40
2021/06/16 04:44:07;;;;;;;5.40;2.63;;;15.40;99.90;;;;;;12436964;28;20054;-40
2021/06/16 04:50:11;;;;;;;11.43;2.90;;;15.40;99.90;;;;;;12442986;28;20055;-39
2021/06/16 04:56:13;;;;;;;6.07;2.70;;;15.50;99.90;;;;;;12435367;28;20508;-40
2021/06/16 05:02:15;;;;;;;7.50;2.50;;;15.50;99.90;;;;;;12445353;28;20655;-40
2021/06/16 05:08:17;;;;;;;9.10;2.83;;;15.50;99.90;;;;;;12440512;28;20096;-41
2021/06/16 05:14:19;;;;;;;5.72;2.47;;;15.50;99.90;;;;;;12443858;28;20058;-40
2021/06/16 05:20:21;;;;;;;7.40;2.75;;;15.70;99.90;;;;;;12434021;28;20046;-40
2021/06/16 05:26:24;;;;;;;6.63;2.75;;;15.80;99.90;;;;;;12441196;28;20065;-39
2021/06/16 05:32:26;;;;;;;6.95;2.83;;;15.90;99.90;;;;;;12439963;28;20060;-40
2021/06/16 05:38:28;;;;;;;9.80;3.03;;;16.00;99.90;;;;;;12438753;28;20058;-40
2021/06/16 05:44:30;;;;;;;5.55;2.30;;;16.10;99.90;;;;;;12441793;28;20604;-42
2021/06/16 05:50:32;;;;;;;5.75;2.38;;;16.30;99.90;;;;;;12444439;28;20042;-40
2021/06/16 05:56:34;;;;;;;6.05;2.78;;;16.40;99.90;;;;;;12439322;28;20053;-39
2021/06/16 06:02:36;;;;;;;6.80;2.58;;;16.50;99.90;;;;;;12439750;28;20552;-41
2021/06/16 06:08:38;;;;;;;5.72;2.13;;;16.50;99.90;;;;;;12443281;28;20061;-40
2021/06/16 06:14:40;;;;;;;8.48;2.38;;;16.60;99.90;;;;;;12432512;28;20057;-40
2021/06/16 06:20:42;;;;;;;8.40;2.88;;;16.70;99.90;;;;;;12443651;28;20095;-40
2021/06/16 06:26:44;;;;;;;7.45;2.60;;;16.80;99.90;;;;;;12428842;28;20050;-41
2021/06/16 06:32:46;;;;;;;8.77;2.83;;;17.00;99.90;;;;;;12436479;28;20390;-42
2021/06/16 06:38:48;;;;;;;8.00;2.80;;;17.10;99.90;;;;;;12438597;28;20080;-40
2021/06/16 06:44:50;;;;;;;9.02;1.98;;;17.30;99.90;;;;;;12436952;28;20424;-39
2021/06/16 06:50:54;;;;;;;9.65;2.65;;;17.40;99.90;;;;;;12434327;28;20576;-40
2021/06/16 06:56:55;;;;;;;6.30;2.97;;;17.50;99.90;;;;;;12438414;28;20061;-39
2021/06/16 07:02:57;;;;;;;6.68;2.40;;;17.50;99.90;;;;;;12435630;28;20439;-39
2021/06/16 07:08:59;;;;;;;7.60;2.65;;;17.60;99.90;;;;;;12430184;28;20050;-40
2021/06/16 07:15:03;;;;;;;11.25;2.75;;;17.70;99.90;;;;;;12431331;28;20099;-41
2021/06/16 07:21:05;;;;;;;6.43;2.73;;;17.80;99.90;;;;;;12428632;28;20045;-41
2021/06/16 07:27:09;;;;;;;6.65;2.30;;;17.90;99.90;;;;;;12426733;28;20375;-40
2021/06/16 07:33:11;;;;;;;9.18;2.65;;;18.10;99.90;;;;;;12426327;28;20046;-40
2021/06/16 07:39:13;;;;;;;8.10;3.13;;;18.20;99.90;;;;;;12428390;28;20100;-39
2021/06/16 07:45:15;;;;;;;6.55;2.60;;;18.40;99.90;;;;;;12430075;28;20049;-40
2021/06/16 07:51:19;;;;;;;7.78;2.65;;;18.60;99.90;;;;;;12428480;28;20053;-41
2021/06/16 07:57:20;;;;;;;10.97;3.20;;;18.80;99.90;;;;;;12427338;28;20680;-40
2021/06/16 08:03:22;;;;;;;6.45;2.88;;;18.90;99.90;;;;;;12438404;28;20184;-40
2021/06/16 08:09:24;;;;;;;6.88;2.42;;;19.10;99.90;;;;;;12435763;28;20088;-39
2021/06/16 08:15:27;;;;;;;12.73;3.28;;;19.30;99.90;;;;;;12446472;28;20059;-40
2021/06/16 08:21:29;;;;;;;6.22;2.50;;;19.40;99.90;;;;;;12448746;28;20046;-40
2021/06/16 08:27:31;;;;;;;7.32;2.80;;;19.60;99.90;;;;;;12445735;28;20054;-41
2021/06/16 08:33:33;;;;;;;11.43;3.88;;;19.70;99.90;;;;;;12446819;28;20160;-40
2021/06/16 08:39:35;;;;;;;9.10;3.00;;;20.10;99.90;;;;;;12443070;28;20053;-41
2021/06/16 08:45:42;;;;;;;9.75;3.45;;;20.20;99.90;;;;;;12444190;28;20103;-41
2021/06/16 08:51:43;;;;;;;10.55;3.50;;;20.60;99.90;;;;;;12445372;28;20653;-40
2021/06/16 08:57:49;;;;;;;8.60;3.53;;;20.90;99.90;;;;;;12442354;28;20698;-41
2021/06/16 09:03:51;;;;;;;9.18;3.50;;;21.00;99.90;;;;;;12445313;28;20095;-40
2021/06/16 09:10:05;;;;;;;8.98;4.10;;;21.20;99.90;;;;;;12446221;28;20076;-40
2021/06/16 09:16:29;;;;;;;9.15;3.88;;;21.50;99.90;;;;;;12443549;28;20050;-40
2021/06/16 09:22:34;;;;;;;8.77;3.53;;;21.70;99.90;;;;;;12445835;28;20053;-42
2021/06/16 09:28:44;;;;;;;6.35;3.80;;;21.90;99.90;;;;;;12444070;28;20143;-41
2021/06/16 09:34:54;;;;;;;10.88;4.68;;;22.10;99.90;;;;;;12443467;28;20042;-41
2021/06/16 09:40:57;;;;;;;9.00;4.05;;;22.60;99.90;;;;;;12445422;28;20054;-43
2021/06/16 09:47:15;;;;;;;8.18;4.18;;;23.00;99.90;;;;;;12449315;28;20513;-41
2021/06/16 09:53:17;;;;;;;8.50;3.90;;;23.20;99.90;;;;;;12444915;28;20042;-40
2021/06/16 09:59:35;;;;;;;5.35;3.58;;;23.00;99.90;;;;;;12441607;28;20089;-40
2021/06/16 10:06:05;;;;;;;13.20;4.32;;;23.10;99.90;;;;;;12447968;28;20045;-41
2021/06/16 10:12:07;;;;;;;12.30;4.40;;;23.20;99.90;;;;;;12440814;28;20100;-42
2021/06/16 10:18:10;;;;;;;7.63;3.78;;;23.40;99.90;;;;;;12444067;28;20084;-41
2021/06/16 10:24:12;;;;;;;8.45;3.70;;;23.90;99.90;;;;;;12443831;28;20062;-40
2021/06/16 10:30:21;;;;;;;8.27;3.60;;;23.90;99.90;;;;;;12443036;28;20153;-41
2021/06/16 10:36:23;;;;;;;7.38;4.30;;;24.20;99.90;;;;;;12440395;28;20053;-42
2021/06/16 10:42:45;;;;;;;;;;;24.30;99.90;;;;;;12446702;28;20383;-40
2021/06/16 10:48:54;;;;;;;8.70;4.30;;;24.50;99.90;;;;;;12444029;28;20021;-41
2021/06/16 10:55:04;;;;;;;5.15;3.92;;;24.90;99.90;;;;;;12441090;28;20172;-41
2021/06/16 11:01:17;;;;;;;9.65;4.45;;;25.10;99.90;;;;;;12441251;28;20136;-41
2021/06/16 11:07:32;;;;;;;8.15;4.47;;;25.30;99.90;;;;;;12437946;28;20168;-40
2021/06/16 11:13:42;;;;;;;9.25;4.50;;;25.30;99.90;;;;;;12439215;28;20091;-41
2021/06/16 11:19:44;;;;;;;7.00;4.40;;;25.90;99.90;;;;;;12446296;28;20213;-40
2021/06/16 11:25:45;;;;;;;8.17;4.90;;;26.10;99.90;;;;;;12434248;28;20120;-41
2021/06/16 11:32:12;;;;;;;8.45;4.32;;;26.50;99.90;;;;;;12443164;28;20041;-41
2021/06/16 11:38:17;;;;;;;7.72;4.65;;;26.30;99.90;;;;;;12438744;28;20558;-41
2021/06/16 11:44:20;;;;;;;8.85;4.82;;;26.40;99.90;;;;;;12438534;28;20050;-40
2021/06/16 11:50:33;;;;;;;8.27;4.93;;;26.60;99.90;;;;;;12446297;28;20076;-40
2021/06/16 11:56:39;;;;;;;7.68;4.47;;;27.00;99.90;;;;;;12450150;28;20106;-40
2021/06/16 12:02:41;;;;;;;6.97;4.35;;;27.10;99.90;;;;;;12447825;28;20132;-40
2021/06/16 12:08:44;;;;;;;9.77;5.00;;;27.30;99.90;;;;;;12456239;28;20094;-41
2021/06/16 12:14:45;;;;;;;8.13;4.35;;;27.70;99.90;;;;;;12447877;28;20539;-40
2021/06/16 12:20:49;;;;;;;10.87;5.03;;;27.50;99.90;;;;;;12450395;28;20098;-40
2021/06/16 12:27:10;;;;;;;7.93;4.75;;;28.00;99.90;;;;;;12447930;28;20077;-41
2021/06/16 12:33:18;;;;;;;10.20;5.00;;;28.00;99.90;;;;;;12446765;28;20053;-40
2021/06/16 12:39:24;;;;;;;8.55;4.75;;;27.50;99.90;;;;;;12452511;28;20057;-41
2021/06/16 12:45:28;;;;;;;7.93;4.32;;;28.00;99.90;;;;;;12444838;28;20081;-42
2021/06/16 12:51:29;;;;;;;12.43;5.30;;;28.30;99.90;;;;;;12446401;28;20219;-40
2021/06/16 12:57:45;;;;;;;8.07;4.77;;;28.50;99.90;;;;;;12444267;28;20054;-41
2021/06/16 13:03:49;;;;;;;9.40;5.30;;;28.80;99.90;;;;;;12447856;28;20474;-41
2021/06/16 13:10:06;;;;;;;11.50;5.53;;;28.30;99.90;;;;;;12447105;28;20156;-41
2021/06/16 13:16:29;;;;;;;10.20;5.10;;;28.50;99.90;;;;;;12448657;28;20144;-41
2021/06/16 13:22:36;;;;;;;5.93;4.32;;;29.10;99.90;;;;;;12444716;28;20077;-42
2021/06/16 13:28:40;;;;;;;7.55;4.53;;;;;;;;;;12451942;28;20144;-41
2021/06/16 13:34:45;;;;;;;6.95;5.05;;;29.10;99.90;;;;;;12445210;28;20084;-41
2021/06/16 13:40:47;;;;;;;9.25;5.05;;;29.10;99.90;;;;;;12447488;28;20045;-41
2021/06/16 13:46:49;;;;;;;9.33;5.23;;;28.30;99.90;;;;;;12442863;28;20103;-41
2021/06/16 13:52:51;;;;;;;10.27;4.95;;;28.00;99.90;;;;;;12440831;28;20060;-41
2021/06/16 13:58:55;;;;;;;7.05;4.70;;;28.60;99.90;;;;;;12438726;28;20505;-42
2021/06/16 14:04:56;;;;;;;11.18;4.68;;;29.30;99.90;;;;;;12444260;28;20397;-41
2021/06/16 14:11:03;;;;;;;10.20;4.85;;;29.40;99.90;;;;;;12447360;28;20052;-41
2021/06/16 14:17:05;;;;;;;6.63;4.85;;;29.40;99.90;;;;;;12445636;28;20629;-43
2021/06/16 14:23:10;;;;;;;13.02;4.90;;;29.40;99.90;;;;;;12442073;28;20926;-41
2021/06/16 14:29:12;;;;;;;7.13;4.90;;;29.60;99.90;;;;;;12439214;28;20042;-41
2021/06/16 14:35:15;;;;;;;8.45;4.85;;;29.20;99.90;;;;;;12441393;28;20061;-41
2021/06/16 14:41:17;;;;;;;6.30;4.53;;;29.20;99.90;;;;;;12445627;28;20045;-41
2021/06/16 14:47:22;;;;;;;8.65;4.70;;;28.90;99.90;;;;;;12442588;28;20053;-41
2021/06/16 14:53:24;;;;;;;6.90;4.65;;;29.00;99.90;;;;;;12439603;28;20140;-43
2021/06/16 14:59:27;;;;;;;9.98;4.53;;;28.70;99.90;;;;;;12438455;28;20568;-42
2021/06/16 15:05:28;;;;;;;6.13;4.32;;;28.80;99.90;;;;;;12439182;28;20091;-42
2021/06/16 15:11:30;;;;;;;8.07;4.88;;;28.90;99.90;;;;;;12431295;28;20110;-41
2021/06/16 15:17:32;;;;;;;5.45;4.13;;;29.30;99.90;;;;;;12436255;28;20540;-42
2021/06/16 15:23:35;;;;;;;7.78;4.70;;;29.10;99.90;;;;;;12439558;28;20072;-42
2021/06/16 15:29:37;;;;;;;;;;;28.50;99.90;;;;;;12440191;28;20042;-41
2021/06/16 15:35:40;;;;;;;8.70;4.57;;;28.20;99.90;;;;;;12439478;28;19929;-41
2021/06/16 15:41:42;;;;;;;8.50;4.60;;;28.20;99.90;;;;;;12438000;28;20144;-42
2021/06/16 15:47:44;;;;;;;6.33;4.33;;;28.30;99.90;;;;;;12441268;28;20460;-40
2021/06/16 15:53:46;;;;;;;7.73;4.60;;;28.50;99.90;;;;;;12437664;28;20486;-41
2021/06/16 15:59:48;;;;;;;6.57;4.60;;;28.70;99.90;;;;;;12436891;28;20054;-41
2021/06/16 16:05:50;;;;;;;12.98;5.30;;;28.80;99.90;;;;;;12438020;28;20076;-41
2021/06/16 16:11:52;;;;;;;8.40;4.85;;;28.10;99.90;;;;;;12444800;28;20053;-42
2021/06/16 16:17:53;;;;;;;13.00;5.87;;;27.80;99.90;;;;;;12438348;28;20104;-41
2021/06/16 16:23:55;;;;;;;8.50;5.53;;;27.60;99.90;;;;;;12441159;28;20429;-41
2021/06/16 16:29:57;;;;;;;8.27;5.03;;;27.80;99.90;;;;;;12442199;28;20046;-41
2021/06/16 16:35:59;;;;;;;8.13;5.40;;;27.60;99.90;;;;;;12441063;28;20306;-41
2021/06/16 16:42:01;;;;;;;7.40;5.43;;;27.60;99.90;;;;;;12445861;28;20045;-41
2021/06/16 16:48:03;;;;;;;9.10;5.30;;;27.30;99.90;;;;;;12446371;28;20048;-41
2021/06/16 16:54:05;;;;;;;9.30;5.50;;;27.10;99.90;;;;;;12437627;28;20056;-42
2021/06/16 17:00:09;;;;;;;10.87;5.73;;;27.10;99.90;;;;;;12443018;28;20540;-41
2021/06/16 17:06:11;;;;;;;7.00;5.20;;;27.20;99.90;;;;;;12449812;28;20544;-41
2021/06/16 17:12:13;;;;;;;8.67;5.07;;;27.20;99.90;;;;;;12442522;28;20050;-42
2021/06/16 17:18:15;;;;;;;9.27;5.30;;;27.30;99.90;;;;;;12446006;28;20057;-42
2021/06/16 17:24:17;;;;;;;11.33;5.87;;;27.60;99.90;;;;;;12441184;28;20094;-41
2021/06/16 17:30:21;;;;;;;13.60;5.37;;;27.70;99.90;;;;;;12443396;28;20112;-41
2021/06/16 17:36:23;;;;;;;7.53;5.57;;;27.50;99.90;;;;;;12445328;28;20176;-41
2021/06/16 17:42:26;;;;;;;10.00;5.82;;;27.30;99.90;;;;;;12441906;28;20625;-41
2021/06/16 17:48:29;;;;;;;9.27;5.80;;;27.20;99.90;;;;;;12443593;28;20054;-41
2021/06/16 17:54:31;;;;;;;8.93;5.78;;;27.40;99.90;;;;;;12441943;28;20099;-41
2021/06/16 18:00:33;;;;;;;7.87;5.23;;;27.30;99.90;;;;;;12444620;28;20650;-42
2021/06/16 18:06:35;;;;;;;12.93;6.15;;;27.40;99.90;;;;;;12443754;28;20068;-43
2021/06/16 18:12:37;;;;;;;7.30;5.60;;;27.50;99.90;;;;;;12441548;28;20745;-40
2021/06/16 18:18:41;;;;;;;9.53;5.90;;;27.20;99.90;;;;;;12439798;28;20049;-41
2021/06/16 18:24:44;;;;;;;8.45;5.43;;;27.00;99.90;;;;;;12436962;28;21104;-40
2021/06/16 18:30:45;;;;;;;9.38;5.85;;;26.90;99.90;;;;;;12438347;28;20045;-40
2021/06/16 18:36:47;;;;;;;8.60;6.20;;;26.70;99.90;;;;;;12436533;28;20057;-41
2021/06/16 18:42:52;;;;;;;8.97;5.70;;;26.40;99.90;;;;;;12436055;28;20447;-40
2021/06/16 18:48:54;;;;;;;10.05;5.65;;;26.30;99.90;;;;;;12434043;28;20054;-41
2021/06/16 18:54:55;;;;;;;10.20;6.20;;;26.20;99.90;;;;;;12436735;28;20056;-40
2021/06/16 19:00:58;;;;;;;11.20;6.10;;;26.10;99.90;;;;;;12435346;28;20246;-40
2021/06/16 19:07:00;;;;;;;9.38;5.70;;;25.90;99.90;;;;;;12436746;28;20115;-40
2021/06/16 19:13:03;;;;;;;11.15;5.63;;;25.60;99.90;;;;;;12431233;28;20144;-41
2021/06/16 19:19:04;;;;;;;10.70;5.97;;;25.50;99.90;;;;;;12437134;28;20111;-40
2021/06/16 19:25:07;;;;;;;8.68;6.07;;;25.40;99.90;;;;;;12432794;28;20748;-44
2021/06/16 19:31:09;;;;;;;8.20;5.78;;;25.30;99.90;;;;;;12436886;28;20136;-40
2021/06/16 19:37:11;;;;;;;10.37;6.10;;;25.20;99.90;;;;;;12439292;28;20426;-41
2021/06/16 19:43:14;;;;;;;8.15;5.82;;;25.10;99.90;;;;;;12426141;28;20547;-41
2021/06/16 19:49:16;;;;;;;8.13;5.77;;;25.00;99.90;;;;;;12434705;28;20612;-41
2021/06/16 19:55:18;;;;;;;10.32;5.80;;;24.70;99.90;;;;;;12428346;28;20106;-40
2021/06/16 20:01:20;;;;;;;10.48;6.35;;;24.60;99.90;;;;;;12431831;28;20157;-40
2021/06/16 20:07:22;;;;;;;13.17;6.47;;;24.50;99.90;;;;;;12434094;28;20140;-42
2021/06/16 20:13:24;;;;;;;11.43;5.53;;;24.50;99.90;;;;;;12444611;28;20814;-40
2021/06/16 20:19:26;;;;;;;10.45;6.55;;;24.40;99.90;;;;;;12440065;28;20054;-40
2021/06/16 20:25:29;;;;;;;9.23;6.47;;;24.30;99.90;;;;;;12449207;28;20038;-40
2021/06/16 20:31:32;;;;;;;8.35;6.20;;;24.30;99.90;;;;;;12439982;28;20140;-40
2021/06/16 20:37:35;;;;;;;6.80;5.95;;;24.20;99.90;;;;;;12439332;28;20057;-42
2021/06/16 20:43:37;;;;;;;8.52;5.78;;;24.10;99.90;;;;;;12443370;28;20317;-40
2021/06/16 20:49:39;;;;;;;8.90;5.88;;;24.20;99.90;;;;;;12441245;28;20046;-40
2021/06/16 20:55:41;;;;;;;8.80;5.97;;;24.10;99.90;;;;;;12440517;28;20152;-40
2021/06/16 21:01:44;;;;;;;9.43;6.40;;;24.00;99.90;;;;;;12438198;28;20136;-40
2021/06/16 21:07:46;;;;;;;7.47;6.03;;;24.00;99.90;;;;;;12443602;28;20053;-41
2021/06/16 21:13:47;;;;;;;9.48;6.45;;;24.10;99.90;;;;;;12442676;28;20056;-40
2021/06/16 21:19:49;;;;;;;9.23;5.85;;;24.10;99.90;;;;;;12433908;28;20756;-40
2021/06/16 21:25:51;;;;;;;7.68;5.85;;;24.00;99.90;;;;;;12439274;28;20046;-40
2021/06/16 21:31:53;;;;;;;10.20;6.07;;;24.10;99.90;;;;;;12434562;28;20132;-41
2021/06/16 21:37:55;;;;;;;10.77;6.22;;;24.00;99.90;;;;;;12445349;28;20080;-41
2021/06/16 21:43:57;;;;;;;10.50;6.47;;;23.90;99.90;;;;;;12446506;28;20099;-42
2021/06/16 21:49:59;;;;;;;10.75;6.05;;;23.90;99.90;;;;;;12438807;28;20103;-41
2021/06/16 21:56:01;;;;;;;10.60;6.80;;;23.90;99.90;;;;;;12399068;28;20502;-40
2021/06/16 22:02:04;;;;;;;8.77;6.75;;;23.90;99.90;;;;;;12391343;28;21973;-41
2021/06/16 22:08:06;;;;;;;11.07;6.50;;;23.80;99.90;;;;;;12387334;28;20050;-41
2021/06/16 22:14:09;;;;;;;9.17;6.33;;;23.70;99.90;;;;;;12387547;28;20048;-40
2021/06/16 22:20:12;;;;;;;12.63;6.50;;;23.70;99.90;;;;;;12389342;28;20046;-40
2021/06/16 22:26:14;;;;;;;8.95;6.13;;;23.60;99.90;;;;;;12385292;28;20431;-41
2021/06/16 22:32:18;;;;;;;9.80;6.20;;;23.50;99.90;;;;;;12383874;28;20078;-41
2021/06/16 22:38:20;;;;;;;11.18;6.85;;;23.50;99.90;;;;;;12390313;28;20062;-40
2021/06/16 22:44:22;;;;;;;9.20;6.22;;;23.50;99.90;;;;;;12387789;28;20403;-40
2021/06/16 22:50:27;;;;;;;10.25;6.65;;;23.40;99.90;;;;;;12390274;28;20089;-41
2021/06/16 22:56:29;;;;;;;11.18;6.78;;;23.50;99.90;;;;;;12389644;28;20089;-40
2021/06/16 23:02:30;;;;;;;8.63;6.53;;;23.30;99.90;;;;;;12376365;28;20674;-40
2021/06/16 23:08:32;;;;;;;8.07;7.03;;;23.30;99.90;;;;;;12385292;28;20141;-40
2021/06/16 23:14:34;;;;;;;7.57;6.50;;;23.30;99.90;;;;;;12385427;28;20054;-41
2021/06/16 23:20:39;;;;;;;11.15;6.85;;;23.20;99.90;;;;;;12381269;28;20076;-40
2021/06/16 23:26:41;;;;;;;7.55;6.63;;;23.20;99.90;;;;;;12381436;28;20128;-41
2021/06/16 23:32:43;;;;;;;10.32;6.85;;;23.30;99.90;;;;;;12384435;28;20089;-41
2021/06/16 23:38:44;;;;;;;8.88;6.88;;;23.30;99.90;;;;;;12384869;28;20449;-40
2021/06/16 23:44:46;;;;;;;12.15;7.28;;;23.20;99.90;;;;;;12383262;28;20096;-40
2021/06/16 23:50:48;;;;;;;12.88;6.47;;;23.30;99.90;;;;;;12382929;28;20491;-40
2021/06/16 23:56:50;;;;;;;7.65;6.85;;;23.20;99.90;;;;;;12377952;28;104931;-41
